Time;durP1;ratioP1;P1;durP2;ratioP2;P2;SDS_P1;SDS_P2;PMS_P1;PMS_P2;Temp;Humidity;BMP_temperature;BMP_pressure;BME280_temperature;BME280_humidity;BME280_pressure;Samples;Min_cycle;Max_cycle;Signal;HPM_P1;HPM_P2
2023/07/17 00:01:38;;;;;;;1999.90;999.90;;;16.80;99.90;;;;;;5156798;27;20132;-72
2023/07/17 00:04:04;;;;;;;1999.90;999.90;;;16.80;99.90;;;;;;5156766;27;20567;-72
2023/07/17 00:06:29;;;;;;;1999.90;999.90;;;16.70;99.90;;;;;;5156992;27;20037;-72
2023/07/17 00:08:55;;;;;;;1999.90;999.90;;;16.70;99.90;;;;;;5155328;27;20038;-72
2023/07/17 00:11:20;;;;;;;1999.90;999.90;;;16.70;99.90;;;;;;5156678;27;20085;-72
2023/07/17 00:13:46;;;;;;;1999.90;999.90;;;16.80;99.90;;;;;;5156940;27;20039;-72
2023/07/17 00:16:12;;;;;;;1999.90;999.90;;;16.90;99.90;;;;;;5156939;27;20023;-72
2023/07/17 00:18:38;;;;;;;1999.90;999.90;;;16.90;99.90;;;;;;5156459;27;20031;-72
2023/07/17 00:21:04;;;;;;;1999.90;999.90;;;17.00;99.90;;;;;;5155056;27;20030;-72
2023/07/17 00:23:30;;;;;;;1999.90;999.90;;;17.10;99.90;;;;;;5156425;27;20127;-72
2023/07/17 00:25:56;;;;;;;1999.90;999.90;;;17.10;99.90;;;;;;5156879;27;20035;-72
2023/07/17 00:28:21;;;;;;;1999.90;999.90;;;17.20;99.90;;;;;;5156546;27;20487;-72
2023/07/17 00:30:47;;;;;;;1999.90;999.90;;;17.30;99.90;;;;;;5156531;27;20068;-72
2023/07/17 00:33:13;;;;;;;1999.90;999.90;;;17.30;99.90;;;;;;5156253;27;20074;-72
2023/07/17 00:35:38;;;;;;;1999.90;999.90;;;17.40;99.90;;;;;;5156511;27;20027;-72
2023/07/17 00:38:04;;;;;;;1999.90;999.90;;;17.40;99.90;;;;;;5159498;22;20044;-72
2023/07/17 00:40:30;;;;;;;1999.90;999.90;;;17.50;99.90;;;;;;5115182;27;20404;-72
2023/07/17 00:42:59;;;;;;;1999.90;999.90;;;17.50;99.90;;;;;;5114366;27;20041;-72
2023/07/17 00:45:32;;;;;;;1999.90;999.90;;;17.50;99.90;;;;;;5115039;27;20464;-72
2023/07/17 00:47:58;;;;;;;1999.90;999.90;;;17.50;99.90;;;;;;5114377;27;20090;-72
2023/07/17 00:50:24;;;;;;;1999.90;999.90;;;17.50;99.90;;;;;;5114926;27;20115;-72
2023/07/17 00:52:50;;;;;;;1999.90;999.90;;;17.50;99.90;;;;;;5113258;28;20119;-72
2023/07/17 00:55:17;;;;;;;1999.90;999.90;;;17.50;99.90;;;;;;5114940;28;20028;-72
2023/07/17 00:57:43;;;;;;;1999.90;999.90;;;17.50;99.90;;;;;;5114373;27;20028;-72
2023/07/17 01:00:11;;;;;;;1999.90;999.90;;;17.50;99.90;;;;;;5114633;28;20031;-72
2023/07/17 01:02:40;;;;;;;1999.90;999.90;;;17.50;99.90;;;;;;5114527;27;20039;-72
2023/07/17 01:05:06;;;;;;;1999.90;999.90;;;17.50;99.90;;;;;;5114593;27;20043;-72
2023/07/17 01:07:32;;;;;;;1999.90;999.90;;;17.50;99.90;;;;;;5114364;28;20064;-72
2023/07/17 01:09:57;;;;;;;1999.90;999.90;;;17.40;99.90;;;;;;5114767;28;20047;-72
2023/07/17 01:12:23;;;;;;;1999.90;999.90;;;17.40;99.90;;;;;;5114640;28;20115;-72
2023/07/17 01:14:49;;;;;;;1999.90;999.90;;;17.40;99.90;;;;;;5114474;28;20400;-72
2023/07/17 01:17:14;;;;;;;1999.90;999.90;;;17.40;99.90;;;;;;5114622;28;20024;-72
2023/07/17 01:19:40;;;;;;;1999.90;999.90;;;17.30;99.90;;;;;;5114590;28;20034;-72
2023/07/17 01:22:15;;;;;;;1999.90;999.90;;;17.40;99.90;;;;;;5114388;28;20035;-72
2023/07/17 01:24:41;;;;;;;1999.90;999.90;;;17.30;99.90;;;;;;5114794;27;20401;-72
2023/07/17 01:27:06;;;;;;;1999.90;999.90;;;17.40;99.90;;;;;;5114337;28;20036;-72
2023/07/17 01:29:32;;;;;;;1999.90;999.90;;;17.40;99.90;;;;;;5114400;28;20096;-72
2023/07/17 01:31:57;;;;;;;1999.90;999.90;;;17.40;99.90;;;;;;5116076;27;20434;-72
2023/07/17 01:34:23;;;;;;;1999.90;999.90;;;17.30;99.90;;;;;;5117161;28;20447;-72
2023/07/17 01:36:48;;;;;;;1999.90;999.90;;;17.30;99.90;;;;;;5117688;28;20387;-72
2023/07/17 01:39:14;;;;;;;1999.90;999.90;;;17.30;99.90;;;;;;5117685;27;20508;-71
2023/07/17 01:41:40;;;;;;;1999.90;999.90;;;17.30;99.90;;;;;;5117454;28;20111;-72
2023/07/17 01:44:05;;;;;;;1999.90;999.90;;;17.30;99.90;;;;;;5117880;28;20036;-72
2023/07/17 01:46:31;;;;;;;1999.90;999.90;;;17.40;99.90;;;;;;5117787;28;20024;-72
2023/07/17 01:48:56;;;;;;;1999.90;999.90;;;17.40;99.90;;;;;;5115912;28;20076;-72
2023/07/17 01:51:22;;;;;;;1999.90;999.90;;;17.30;99.90;;;;;;5117460;28;20032;-72
2023/07/17 01:53:47;;;;;;;1999.90;999.90;;;17.40;99.90;;;;;;5117394;28;20492;-72
2023/07/17 01:56:13;;;;;;;1999.90;999.90;;;17.30;99.90;;;;;;5117639;28;20366;-72
2023/07/17 01:58:38;;;;;;;1999.90;999.90;;;17.40;99.90;;;;;;5117333;28;20366;-72
2023/07/17 02:01:04;;;;;;;1999.90;999.90;;;17.40;99.90;;;;;;5116857;28;20852;-72
2023/07/17 02:03:31;;;;;;;1999.90;999.90;;;17.40;99.90;;;;;;5117449;28;20082;-72
2023/07/17 02:05:56;;;;;;;1999.90;999.90;;;17.40;99.90;;;;;;5117524;27;20119;-72
2023/07/17 02:08:22;;;;;;;1999.90;999.90;;;17.50;99.90;;;;;;5117130;28;20036;-72
2023/07/17 02:10:50;;;;;;;1999.90;999.90;;;17.50;99.90;;;;;;5117183;28;20059;-72
2023/07/17 02:13:16;;;;;;;1999.90;999.90;;;17.50;99.90;;;;;;5116883;27;20024;-72
2023/07/17 02:15:41;;;;;;;1999.90;999.90;;;17.40;99.90;;;;;;5117275;28;20032;-72
2023/07/17 02:18:07;;;;;;;1999.90;999.90;;;17.40;99.90;;;;;;5116847;28;20068;-72
2023/07/17 02:20:33;;;;;;;1999.90;999.90;;;17.30;99.90;;;;;;5117191;28;20028;-72
2023/07/17 02:22:58;;;;;;;1999.90;999.90;;;17.30;99.90;;;;;;5116684;28;20490;-72
2023/07/17 02:25:24;;;;;;;1999.90;999.90;;;17.20;99.90;;;;;;5117326;28;20588;-72
2023/07/17 02:27:49;;;;;;;1999.90;999.90;;;17.20;99.90;;;;;;5116712;28;20036;-72
2023/07/17 02:30:15;;;;;;;1999.90;999.90;;;17.10;99.90;;;;;;5116695;28;20067;-72
2023/07/17 02:32:40;;;;;;;1999.90;999.90;;;17.10;99.90;;;;;;5116574;28;20158;-72
2023/07/17 02:35:06;;;;;;;1999.90;999.90;;;17.00;99.90;;;;;;5116312;28;20040;-72
2023/07/17 02:37:32;;;;;;;1999.90;999.90;;;16.90;99.90;;;;;;5116255;28;20120;-72
2023/07/17 02:39:57;;;;;;;1999.90;999.90;;;16.90;99.90;;;;;;5116954;28;20059;-72
2023/07/17 02:42:23;;;;;;;1999.90;999.90;;;16.80;99.90;;;;;;5116592;28;20032;-72
2023/07/17 02:44:49;;;;;;;1999.90;999.90;;;16.70;99.90;;;;;;5116933;28;20043;-72
2023/07/17 02:47:14;;;;;;;1999.90;999.90;;;16.60;99.90;;;;;;5115307;28;20051;-72
2023/07/17 02:49:40;;;;;;;1999.90;999.90;;;16.50;99.90;;;;;;5116778;27;20044;-72
2023/07/17 02:52:06;;;;;;;1999.90;999.90;;;16.50;99.90;;;;;;5116582;27;20409;-72
2023/07/17 02:54:32;;;;;;;1999.90;999.90;;;16.50;99.90;;;;;;5116641;27;20051;-72
2023/07/17 02:56:58;;;;;;;1999.90;999.90;;;16.50;99.90;;;;;;5116756;28;20028;-72
2023/07/17 02:59:23;;;;;;;1999.90;999.90;;;16.50;99.90;;;;;;5116187;28;20047;-72
2023/07/17 03:01:49;;;;;;;1999.90;999.90;;;16.50;99.90;;;;;;5116253;27;20028;-71
2023/07/17 03:04:15;;;;;;;1999.90;999.90;;;16.50;99.90;;;;;;5116530;27;20121;-72
2023/07/17 03:06:41;;;;;;;1999.90;999.90;;;16.50;99.90;;;;;;5116615;28;20070;-72
2023/07/17 03:09:07;;;;;;;1999.90;999.90;;;16.50;99.90;;;;;;5116268;28;20793;-72
2023/07/17 03:11:33;;;;;;;1999.90;999.90;;;16.50;99.90;;;;;;5116361;28;20055;-71
2023/07/17 03:13:59;;;;;;;1999.90;999.90;;;16.50;99.90;;;;;;5116384;27;20032;-71
2023/07/17 03:16:24;;;;;;;1999.90;999.90;;;16.50;99.90;;;;;;5116433;28;20035;-72
2023/07/17 03:18:50;;;;;;;1999.90;999.90;;;16.50;99.90;;;;;;5114526;28;20040;-72
2023/07/17 03:21:15;;;;;;;1999.90;999.90;;;16.50;99.90;;;;;;5115946;28;20028;-72
2023/07/17 03:23:41;;;;;;;1999.90;999.90;;;16.40;99.90;;;;;;5116187;28;20062;-72
2023/07/17 03:26:07;;;;;;;1999.90;999.90;;;16.40;99.90;;;;;;5114322;28;20056;-72
2023/07/17 03:28:33;;;;;;;1999.90;999.90;;;16.40;99.90;;;;;;5116043;27;20051;-72
2023/07/17 03:30:58;;;;;;;1999.90;999.90;;;16.30;99.90;;;;;;5115909;27;20036;-71
2023/07/17 03:33:25;;;;;;;1999.90;999.90;;;16.50;99.90;;;;;;5116102;28;20032;-72
2023/07/17 03:35:50;;;;;;;1999.90;999.90;;;16.40;99.90;;;;;;5115563;28;20063;-71
2023/07/17 03:38:16;;;;;;;1999.90;999.90;;;16.40;99.90;;;;;;5115097;28;20043;-72
2023/07/17 03:40:42;;;;;;;1999.90;999.90;;;16.40;99.90;;;;;;5115870;28;20051;-72
2023/07/17 03:43:07;;;;;;;1999.90;999.90;;;16.40;99.90;;;;;;5114000;28;20437;-71
2023/07/17 03:45:33;;;;;;;1999.90;999.90;;;16.40;99.90;;;;;;5115543;28;20034;-72
2023/07/17 03:47:58;;;;;;;1999.90;999.90;;;16.40;99.90;;;;;;5115522;28;20032;-71
2023/07/17 03:50:24;;;;;;;1999.90;999.90;;;16.40;99.90;;;;;;5115924;28;20051;-72
2023/07/17 03:52:50;;;;;;;1999.90;999.90;;;16.40;99.90;;;;;;5115409;28;20107;-71
2023/07/17 03:55:15;;;;;;;1999.90;999.90;;;16.40;99.90;;;;;;5115262;27;20509;-72
2023/07/17 03:57:41;;;;;;;1999.90;999.90;;;16.40;99.90;;;;;;5115119;28;20090;-72
2023/07/17 04:00:13;;;;;;;1999.90;999.90;;;16.50;99.90;;;;;;5115649;28;20043;-72
2023/07/17 04:02:40;;;;;;;1999.90;999.90;;;16.50;99.90;;;;;;5115457;27;20030;-72
2023/07/17 04:05:06;;;;;;;1999.90;999.90;;;16.50;99.90;;;;;;5115446;27;20501;-72
2023/07/17 04:07:32;;;;;;;1999.90;999.90;;;16.50;99.90;;;;;;5115132;28;20032;-71
2023/07/17 04:09:57;;;;;;;1999.90;999.90;;;16.50;99.90;;;;;;5113790;28;20032;-72
2023/07/17 04:12:23;;;;;;;1999.90;999.90;;;16.50;99.90;;;;;;5115121;28;20062;-72
2023/07/17 04:14:48;;;;;;;1999.90;999.90;;;16.60;99.90;;;;;;5115467;28;20119;-72
2023/07/17 04:17:14;;;;;;;1999.90;999.90;;;16.50;99.90;;;;;;5115007;28;20145;-72
2023/07/17 04:19:39;;;;;;;1999.90;999.90;;;16.60;99.90;;;;;;5115336;28;20378;-72
2023/07/17 04:22:05;;;;;;;1999.90;999.90;;;16.50;99.90;;;;;;5114964;28;20586;-72
2023/07/17 04:24:30;;;;;;;1999.90;999.90;;;16.60;99.90;;;;;;5115302;28;20393;-72
2023/07/17 04:26:56;;;;;;;1999.90;999.90;;;16.50;99.90;;;;;;5115209;28;20032;-72
2023/07/17 04:29:22;;;;;;;1999.90;999.90;;;16.60;99.90;;;;;;5113718;28;20347;-72
2023/07/17 04:31:48;;;;;;;1999.90;999.90;;;16.60;99.90;;;;;;5114907;27;20032;-71
2023/07/17 04:34:14;;;;;;;1999.90;999.90;;;16.60;99.90;;;;;;5114318;27;20035;-72
2023/07/17 04:36:40;;;;;;;1999.90;999.90;;;16.70;99.90;;;;;;5115115;28;20040;-72
2023/07/17 04:39:05;;;;;;;1999.90;999.90;;;16.80;99.90;;;;;;5114868;27;20757;-72
2023/07/17 04:41:31;;;;;;;1999.90;999.90;;;16.90;99.90;;;;;;5114737;28;20489;-72
2023/07/17 04:43:57;;;;;;;1999.90;999.90;;;17.00;99.90;;;;;;5113467;28;20092;-72
2023/07/17 04:46:23;;;;;;;1999.90;999.90;;;17.10;99.90;;;;;;5114915;28;20032;-72
2023/07/17 04:48:49;;;;;;;1999.90;999.90;;;17.20;99.90;;;;;;5114723;27;20574;-72
2023/07/17 04:51:15;;;;;;;1999.90;999.90;;;17.30;99.90;;;;;;5114482;28;20121;-72
2023/07/17 04:53:40;;;;;;;1999.90;999.90;;;17.40;99.90;;;;;;5114976;28;20044;-72
2023/07/17 04:56:06;;;;;;;1999.90;999.90;;;17.40;99.90;;;;;;5114828;28;20089;-72
2023/07/17 04:58:35;;;;;;;1999.90;999.90;;;17.60;99.90;;;;;;5114393;28;20473;-72
2023/07/17 05:01:01;;;;;;;1999.90;999.90;;;17.60;99.90;;;;;;5114190;28;20032;-71
2023/07/17 05:03:29;;;;;;;1999.90;999.90;;;17.60;99.90;;;;;;5115002;27;20043;-72
2023/07/17 05:05:55;;;;;;;1999.90;999.90;;;17.70;99.90;;;;;;5114979;28;20417;-72
2023/07/17 05:08:21;;;;;;;1999.90;999.90;;;17.80;99.90;;;;;;5118089;27;20040;-72
2023/07/17 05:10:54;;;;;;;1999.90;999.90;;;17.90;99.90;;;;;;5118165;27;20518;-72
2023/07/17 05:13:20;;;;;;;1999.90;999.90;;;18.10;99.90;;;;;;5118302;27;20043;-72
2023/07/17 05:15:45;;;;;;;1999.90;999.90;;;18.30;99.90;;;;;;5118237;28;20040;-71
2023/07/17 05:18:11;;;;;;;1999.90;999.90;;;18.40;99.90;;;;;;5118174;28;20058;-71
2023/07/17 05:20:36;;;;;;;1999.90;999.90;;;18.40;99.90;;;;;;5118360;28;20044;-72
2023/07/17 05:23:02;;;;;;;1999.90;999.90;;;18.50;99.90;;;;;;5117875;28;20062;-71
2023/07/17 05:25:28;;;;;;;1999.90;999.90;;;18.50;99.90;;;;;;5114323;28;20086;-72
2023/07/17 05:27:53;;;;;;;1999.90;999.90;;;18.40;99.90;;;;;;5106312;28;20025;-72
2023/07/17 05:30:19;;;;;;;1999.90;999.90;;;18.30;99.90;;;;;;5107094;28;20036;-72
2023/07/17 05:32:44;;;;;;;1999.90;999.90;;;18.20;99.90;;;;;;5107742;28;20028;-71
2023/07/17 05:35:10;;;;;;;1999.90;999.90;;;18.20;99.90;;;;;;5108420;28;20048;-72
2023/07/17 05:37:35;;;;;;;1999.90;999.90;;;18.30;99.90;;;;;;5099394;28;20028;-73
2023/07/17 05:40:01;;;;;;;1999.90;999.90;;;18.30;99.90;;;;;;5097524;28;20559;-72
2023/07/17 05:42:26;;;;;;;1999.90;999.90;;;18.50;99.90;;;;;;5097258;28;20038;-72
2023/07/17 05:44:52;;;;;;;1999.90;999.90;;;18.70;99.90;;;;;;5097049;28;20363;-72
2023/07/17 05:47:17;;;;;;;1999.90;999.90;;;19.10;99.90;;;;;;5097173;28;20478;-73
2023/07/17 05:49:43;;;;;;;1999.90;999.90;;;19.30;99.90;;;;;;5096984;28;20032;-73
2023/07/17 05:52:09;;;;;;;1999.90;999.90;;;19.50;99.90;;;;;;5096974;28;20038;-72
2023/07/17 05:54:35;;;;;;;1999.90;999.90;;;19.70;99.90;;;;;;5096929;28;20040;-72
2023/07/17 05:57:01;;;;;;;1999.90;999.90;;;19.80;99.90;;;;;;5097020;28;20032;-72
2023/07/17 05:59:27;;;;;;;1999.90;999.90;;;19.80;99.90;;;;;;5096950;28;20039;-72
2023/07/17 06:01:52;;;;;;;1999.90;999.90;;;19.80;99.90;;;;;;5097007;28;20037;-73
2023/07/17 06:04:18;;;;;;;1999.90;999.90;;;19.70;99.90;;;;;;5096922;28;20040;-72
2023/07/17 06:06:44;;;;;;;1999.90;999.90;;;19.70;99.90;;;;;;5096613;28;20029;-72
2023/07/17 06:09:09;;;;;;;1999.90;999.90;;;19.70;99.90;;;;;;5096903;28;20087;-73
2023/07/17 06:11:35;;;;;;;1999.90;999.90;;;19.60;99.90;;;;;;5094847;28;20033;-73
2023/07/17 06:14:00;;;;;;;1999.90;999.90;;;19.60;99.90;;;;;;5096204;28;20040;-72
2023/07/17 06:16:26;;;;;;;1999.90;999.90;;;19.60;99.90;;;;;;5096778;28;20032;-72
2023/07/17 06:18:51;;;;;;;1999.90;999.90;;;19.60;99.90;;;;;;5096398;28;20055;-72
2023/07/17 06:21:17;;;;;;;1999.90;999.90;;;19.60;99.90;;;;;;5096645;28;20029;-72
2023/07/17 06:23:42;;;;;;;1999.90;999.90;;;19.70;99.90;;;;;;5095214;28;20036;-71
2023/07/17 06:26:08;;;;;;;1999.90;999.90;;;19.70;99.90;;;;;;5096389;28;20028;-71
2023/07/17 06:28:33;;;;;;;1999.90;999.90;;;19.80;99.90;;;;;;5095952;28;20043;-72
2023/07/17 06:30:59;;;;;;;1999.90;999.90;;;19.90;99.90;;;;;;5096154;28;20083;-72
2023/07/17 06:33:24;;;;;;;1999.90;999.90;;;20.00;99.90;;;;;;5096585;28;20455;-73
2023/07/17 06:35:50;;;;;;;1999.90;999.90;;;20.20;99.90;;;;;;5096375;28;20048;-74
2023/07/17 06:38:16;;;;;;;1999.90;999.90;;;20.20;99.90;;;;;;5109589;28;20043;-74
2023/07/17 06:40:42;;;;;;;1999.90;999.90;;;20.40;99.90;;;;;;5105451;27;20040;-76
2023/07/17 06:43:08;;;;;;;1999.90;999.90;;;20.50;99.90;;;;;;5096069;28;20043;-75
2023/07/17 06:45:35;;;;;;;1999.90;999.90;;;20.60;99.90;;;;;;5096443;28;20048;-77
2023/07/17 06:48:00;;;;;;;1999.90;999.90;;;20.70;99.90;;;;;;5110859;28;20028;-77
2023/07/17 06:50:26;;;;;;;1999.90;999.90;;;20.90;99.90;;;;;;5115397;28;20168;-76
2023/07/17 06:52:51;;;;;;;1999.90;999.90;;;21.00;99.90;;;;;;5116433;28;20060;-74
2023/07/17 06:55:17;;;;;;;1999.90;999.90;;;21.10;99.90;;;;;;5108208;28;20056;-77
2023/07/17 06:57:42;;;;;;;1999.90;999.90;;;21.10;99.90;;;;;;5100891;28;20035;-73
2023/07/17 07:00:09;;;;;;;1999.90;999.90;;;21.20;99.90;;;;;;5096028;28;20048;-76
2023/07/17 07:02:35;;;;;;;1999.90;999.90;;;21.40;99.90;;;;;;5095907;28;20473;-77
2023/07/17 07:05:00;;;;;;;1999.90;999.90;;;21.60;99.90;;;;;;5101963;28;20036;-76
2023/07/17 07:07:26;;;;;;;1999.90;999.90;;;21.70;99.90;;;;;;5116533;28;20028;-76
2023/07/17 07:09:51;;;;;;;1999.90;999.90;;;21.80;99.90;;;;;;5116526;28;20073;-78
2023/07/17 07:12:17;;;;;;;1999.90;999.90;;;21.90;99.90;;;;;;5116598;28;20532;-76
2023/07/17 07:14:43;;;;;;;1999.90;999.90;;;22.00;99.90;;;;;;5116550;28;20067;-76
2023/07/17 07:17:08;;;;;;;1999.90;999.90;;;22.20;99.90;;;;;;5114403;28;20500;-77
2023/07/17 07:19:34;;;;;;;1999.90;999.90;;;22.40;99.90;;;;;;5116366;28;20028;-76
2023/07/17 07:22:00;;;;;;;1999.90;999.90;;;22.50;99.90;;;;;;5116874;28;20032;-76
2023/07/17 07:24:25;;;;;;;1999.90;999.90;;;22.70;99.90;;;;;;5097788;28;20040;-75
2023/07/17 07:26:51;;;;;;;1999.90;999.90;;;22.90;99.90;;;;;;5095881;28;20029;-75
2023/07/17 07:29:17;;;;;;;1999.90;999.90;;;22.90;99.60;;;;;;5101774;28;20036;-75
2023/07/17 07:31:42;;;;;;;1999.90;999.90;;;23.10;97.90;;;;;;5115827;27;20109;-74
2023/07/17 07:34:08;;;;;;;1999.90;999.90;;;23.20;97.40;;;;;;5116132;28;20123;-75
2023/07/17 07:36:33;;;;;;;1999.90;999.90;;;23.40;97.30;;;;;;5102374;28;20032;-74
2023/07/17 07:38:59;;;;;;;1999.90;999.90;;;23.50;95.70;;;;;;5094792;28;20032;-75
2023/07/17 07:41:25;;;;;;;1999.90;999.90;;;23.60;96.10;;;;;;5097760;28;20030;-74
2023/07/17 07:43:50;;;;;;;1999.90;999.90;;;23.70;96.40;;;;;;5115883;28;20430;-76
2023/07/17 07:46:16;;;;;;;1999.90;999.90;;;23.60;96.00;;;;;;5109598;28;20040;-75
2023/07/17 07:48:41;;;;;;;1999.90;999.90;;;23.80;96.10;;;;;;5095198;28;20040;-76
2023/07/17 07:51:07;;;;;;;1999.90;999.90;;;23.90;95.00;;;;;;5095177;28;20029;-77
2023/07/17 07:53:32;;;;;;;1999.90;999.90;;;24.10;94.80;;;;;;5095589;28;20040;-77
2023/07/17 07:56:01;;;;;;;1999.90;999.90;;;24.20;93.70;;;;;;5109963;27;20367;-75
2023/07/17 07:58:27;;;;;;;1999.90;999.90;;;24.30;92.90;;;;;;5109908;28;20898;-73
2023/07/17 08:00:53;;;;;;;1999.90;999.90;;;24.40;93.40;;;;;;5093925;28;20032;-76
2023/07/17 08:03:19;;;;;;;1999.90;999.90;;;24.40;92.80;;;;;;5093702;28;20897;-74
2023/07/17 08:05:44;;;;;;;1999.90;999.90;;;24.50;92.80;;;;;;5110770;28;20043;-73
2023/07/17 08:08:10;;;;;;;1999.90;999.90;;;24.70;93.00;;;;;;5115186;28;20085;-73
2023/07/17 08:10:38;;;;;;;1999.90;999.90;;;24.80;92.30;;;;;;5115424;28;20115;-73
2023/07/17 08:13:04;;;;;;;1999.90;999.90;;;25.00;91.80;;;;;;5095347;28;20412;-73
2023/07/17 08:15:30;;;;;;;1999.90;999.90;;;25.10;91.50;;;;;;5102956;28;20044;-73
2023/07/17 08:17:56;;;;;;;1999.90;999.90;;;25.20;90.30;;;;;;5094504;28;20490;-72
2023/07/17 08:20:21;;;;;;;1999.90;999.90;;;25.40;90.00;;;;;;5093189;28;20075;-72
2023/07/17 08:22:48;;;;;;;1999.90;999.90;;;25.50;90.10;;;;;;5094620;28;20036;-73
2023/07/17 08:25:14;;;;;;;1999.90;999.90;;;25.70;85.10;;;;;;5094905;28;20032;-72
2023/07/17 08:27:39;;;;;;;1999.90;999.90;;;25.80;83.80;;;;;;5094762;28;20029;-73
2023/07/17 08:30:06;;;;;;;1999.90;999.90;;;25.90;84.40;;;;;;5095905;28;20099;-73
2023/07/17 08:32:31;;;;;;;1999.90;999.90;;;26.10;83.10;;;;;;5094427;28;20099;-73
2023/07/17 08:34:57;;;;;;;1999.90;999.90;;;26.30;84.30;;;;;;5094859;28;20505;-73
2023/07/17 08:37:22;;;;;;;1999.90;999.90;;;27.00;81.70;;;;;;5094021;28;20143;-73
2023/07/17 08:39:48;;;;;;;1999.90;999.90;;;27.30;79.20;;;;;;5102268;28;20039;-73
2023/07/17 08:42:13;;;;;;;1999.90;999.90;;;27.70;80.60;;;;;;5118473;28;20032;-74
2023/07/17 08:44:40;;;;;;;1999.90;999.90;;;27.90;76.40;;;;;;5118810;28;20038;-72
2023/07/17 08:47:08;;;;;;;1999.90;999.90;;;28.30;73.80;;;;;;5118448;27;20518;-73
2023/07/17 08:49:35;;;;;;;1999.90;999.90;;;28.00;72.40;;;;;;5118254;27;20036;-73
2023/07/17 08:52:03;;;;;;;1999.90;999.90;;;28.00;70.50;;;;;;5118219;28;20107;-72
2023/07/17 08:54:29;;;;;;;1999.90;999.90;;;28.10;69.60;;;;;;5105181;27;20040;-73
2023/07/17 08:56:57;;;;;;;1999.90;999.90;;;27.70;69.90;;;;;;5097912;28;20032;-72
2023/07/17 08:59:22;;;;;;;1999.90;999.90;;;27.30;76.30;;;;;;5102017;28;20047;-73
2023/07/17 09:01:49;;;;;;;1999.90;999.90;;;27.00;74.20;;;;;;5105805;28;20751;-72
2023/07/17 09:04:16;;;;;;;1999.90;999.90;;;26.50;71.20;;;;;;5097960;28;20536;-72
2023/07/17 09:06:41;;;;;;;1999.90;999.90;;;26.50;71.60;;;;;;5117240;28;20028;-74
2023/07/17 09:09:09;;;;;;;1999.90;999.90;;;26.80;69.80;;;;;;5118484;28;20485;-74
2023/07/17 09:11:35;;;;;;;1999.90;999.90;;;26.60;69.90;;;;;;5108783;27;20035;-70
2023/07/17 09:14:00;;;;;;;1999.90;999.90;;;26.40;69.30;;;;;;5113395;27;20047;-71
2023/07/17 09:16:26;;;;;;;1999.90;999.90;;;26.50;71.30;;;;;;5126779;27;20432;-71
2023/07/17 09:18:53;;;;;;;1999.90;999.90;;;26.70;69.70;;;;;;5120727;27;20440;-69
2023/07/17 09:21:21;;;;;;;1999.90;999.90;;;27.00;71.30;;;;;;5130382;27;20085;-70
2023/07/17 09:23:51;;;;;;;1999.90;999.90;;;27.30;67.40;;;;;;5118114;27;20105;-70
2023/07/17 09:26:24;;;;;;;1999.90;999.90;;;27.10;68.70;;;;;;5125074;27;20036;-70
2023/07/17 09:28:55;;;;;;;1999.90;999.90;;;26.70;69.40;;;;;;5106659;27;20087;-70
2023/07/17 09:31:28;;;;;;;1999.90;999.90;;;26.40;69.30;;;;;;5110949;27;20028;-70
2023/07/17 09:33:55;;;;;;;1999.90;999.90;;;26.50;70.20;;;;;;5114982;28;20043;-71
2023/07/17 09:36:21;;;;;;;1999.90;999.90;;;26.10;70.80;;;;;;5116205;27;20088;-70
2023/07/17 09:38:55;;;;;;;1999.90;999.90;;;25.80;71.30;;;;;;5116721;27;20039;-70
2023/07/17 09:41:26;;;;;;;1999.90;999.90;;;26.10;71.50;;;;;;5115848;28;20078;-70
2023/07/17 09:44:04;;;;;;;1999.90;999.90;;;26.70;71.40;;;;;;5117714;27;20036;-70
2023/07/17 09:46:32;;;;;;;1999.90;999.90;;;27.20;69.30;;;;;;5115034;27;20152;-70
2023/07/17 09:48:58;;;;;;;1999.90;999.90;;;27.40;69.90;;;;;;5115872;27;20057;-74
2023/07/17 09:51:25;;;;;;;1999.90;999.90;;;27.20;66.00;;;;;;5116034;28;20028;-70
2023/07/17 09:53:51;;;;;;;1999.90;999.90;;;27.40;67.80;;;;;;5117189;27;20043;-73
2023/07/17 09:56:20;;;;;;;1999.90;999.90;;;27.70;65.70;;;;;;5118467;27;20059;-74
2023/07/17 09:58:47;;;;;;;1999.90;999.90;;;28.10;62.50;;;;;;5117690;28;20506;-72
2023/07/17 10:01:16;;;;;;;1999.90;999.90;;;28.10;61.60;;;;;;5117417;27;20062;-73
2023/07/17 10:03:47;;;;;;;1999.90;999.90;;;28.20;64.80;;;;;;5117830;27;20078;-75
2023/07/17 10:06:15;;;;;;;1999.90;999.90;;;28.70;63.90;;;;;;5117518;27;20025;-75
2023/07/17 10:08:44;;;;;;;1999.90;999.90;;;29.00;63.50;;;;;;5117506;27;20035;-73
2023/07/17 10:11:09;;;;;;;1999.90;999.90;;;28.70;61.10;;;;;;5117421;27;20036;-74
2023/07/17 10:13:35;;;;;;;1999.90;999.90;;;28.60;60.80;;;;;;5110136;28;20036;-70
2023/07/17 10:16:01;;;;;;;1999.90;999.90;;;28.50;63.80;;;;;;5117084;28;20032;-71
2023/07/17 10:18:29;;;;;;;1999.90;999.90;;;28.60;62.00;;;;;;5116825;27;20039;-72
2023/07/17 10:20:55;;;;;;;1999.90;999.90;;;28.50;64.60;;;;;;5116780;27;20043;-72
2023/07/17 10:23:25;;;;;;;1999.90;999.90;;;28.20;61.40;;;;;;5116897;27;20067;-71
2023/07/17 10:25:52;;;;;;;1999.90;999.90;;;28.20;65.10;;;;;;5117036;27;20125;-71
2023/07/17 10:28:31;;;;;;;1999.90;999.90;;;28.30;64.00;;;;;;5116754;27;20068;-75
2023/07/17 10:31:07;;;;;;;1999.90;999.90;;;28.40;65.10;;;;;;5116596;27;20035;-72
2023/07/17 10:33:37;;;;;;;1999.90;999.90;;;28.50;63.10;;;;;;5117328;27;20066;-73
2023/07/17 10:36:03;;;;;;;1999.90;999.90;;;28.80;63.20;;;;;;5117254;27;20040;-74
2023/07/17 10:38:31;;;;;;;1999.90;999.90;;;28.70;60.70;;;;;;5116263;27;20036;-72
2023/07/17 10:41:12;;;;;;;1999.90;999.90;;;28.70;60.50;;;;;;5111123;27;20048;-72
2023/07/17 10:43:49;;;;;;;1999.90;999.90;;;28.40;60.00;;;;;;5096125;28;20031;-72
2023/07/17 10:46:14;;;;;;;1999.90;999.90;;;28.00;60.00;;;;;;5104822;28;20113;-73
2023/07/17 10:48:40;;;;;;;1999.90;999.90;;;28.00;60.70;;;;;;5116257;28;20104;-72
2023/07/17 10:51:06;;;;;;;1999.90;999.90;;;28.10;59.90;;;;;;5116468;27;20137;-71
2023/07/17 10:53:32;;;;;;;1999.90;999.90;;;28.10;60.10;;;;;;5116358;28;20546;-72
2023/07/17 10:55:58;;;;;;;1999.90;999.90;;;28.10;59.50;;;;;;5116588;27;20464;-73
2023/07/17 10:58:23;;;;;;;1999.90;999.90;;;28.30;59.10;;;;;;5116252;27;20036;-71
2023/07/17 11:00:49;;;;;;;1999.90;999.90;;;28.30;61.20;;;;;;5102844;28;20394;-71
2023/07/17 11:03:16;;;;;;;1999.90;999.90;;;28.40;60.30;;;;;;5093523;28;20429;-72
2023/07/17 11:05:43;;;;;;;1999.90;999.90;;;28.40;58.30;;;;;;5095654;28;20131;-76
2023/07/17 11:08:11;;;;;;;1999.90;999.90;;;28.10;58.30;;;;;;5096803;28;20040;-75
2023/07/17 11:10:40;;;;;;;1999.90;999.90;;;28.00;61.20;;;;;;5095802;28;20124;-72
2023/07/17 11:13:07;;;;;;;1999.90;999.90;;;28.40;62.00;;;;;;5095848;28;20028;-75
2023/07/17 11:15:33;;;;;;;1999.90;999.90;;;28.70;60.00;;;;;;5095976;28;20486;-75
2023/07/17 11:18:00;;;;;;;1999.90;999.90;;;28.30;59.60;;;;;;5097545;27;20110;-73
2023/07/17 11:20:38;;;;;;;1999.90;999.90;;;27.80;62.10;;;;;;5115416;27;20043;-74
2023/07/17 11:23:03;;;;;;;1999.90;999.90;;;27.90;62.40;;;;;;5111127;28;20036;-74
2023/07/17 11:25:31;;;;;;;1999.90;999.90;;;28.30;62.50;;;;;;5117471;27;20044;-74
2023/07/17 11:27:59;;;;;;;1999.90;999.90;;;28.70;61.30;;;;;;5113474;28;20516;-74
2023/07/17 11:30:29;;;;;;;1999.90;999.90;;;28.90;61.40;;;;;;5114314;28;20032;-74
2023/07/17 11:32:58;;;;;;;1999.90;999.90;;;28.60;60.30;;;;;;5117078;27;20147;-74
2023/07/17 11:35:36;;;;;;;1999.90;999.90;;;28.40;59.60;;;;;;5114293;27;20036;-74
2023/07/17 11:38:06;;;;;;;1999.90;999.90;;;28.50;61.90;;;;;;5106718;27;20086;-74
2023/07/17 11:40:31;;;;;;;1999.90;999.90;;;28.40;60.90;;;;;;5123537;27;20379;-74
2023/07/17 11:43:03;;;;;;;1999.90;999.90;;;28.80;60.90;;;;;;5118555;27;20039;-74
2023/07/17 11:45:29;;;;;;;1999.90;999.90;;;28.70;61.30;;;;;;5128905;27;20036;-74
2023/07/17 11:47:55;;;;;;;1999.90;999.90;;;28.80;60.10;;;;;;5109430;27;20032;-74
2023/07/17 11:50:24;;;;;;;1999.90;999.90;;;28.70;60.20;;;;;;5109765;28;20583;-74
2023/07/17 11:53:05;;;;;;;1999.90;999.90;;;28.90;61.10;;;;;;5109367;27;20112;-74
2023/07/17 11:55:35;;;;;;;1999.90;999.90;;;28.90;61.50;;;;;;5112793;28;20090;-75